createdAt,value
2022-12-03T00:01:57.336Z,22.33
2022-12-03T00:04:00.048Z,24.17
2022-12-03T00:06:04.129Z,26.20
2022-12-03T00:08:06.886Z,26.55
2022-12-03T00:10:10.444Z,26.33
2022-12-03T00:12:13.101Z,26.55
2022-12-03T00:14:15.721Z,25.25
2022-12-03T00:16:18.353Z,24.67
2022-12-03T00:18:20.993Z,24.15
2022-12-03T00:20:25.012Z,25.23
2022-12-03T00:22:28.991Z,29.80
2022-12-03T00:24:31.595Z,23.45
2022-12-03T00:26:34.296Z,26.38
2022-12-03T00:28:36.928Z,24.70
2022-12-03T00:30:39.733Z,27.17
2022-12-03T00:32:42.557Z,27.55
2022-12-03T00:34:45.546Z,25.55
2022-12-03T00:36:48.449Z,32.03
2022-12-03T00:38:52.403Z,33.40
2022-12-03T00:40:55.001Z,36.58
2022-12-03T00:42:57.808Z,29.63
2022-12-03T00:45:00.448Z,28.23
2022-12-03T00:47:03.117Z,32.40
2022-12-03T00:49:06.154Z,32.08
2022-12-03T00:51:08.796Z,32.53
2022-12-03T00:53:11.499Z,72.57
2022-12-03T00:55:15.479Z,53.92
2022-12-03T00:57:18.341Z,37.33
2022-12-03T00:59:20.921Z,34.63
2022-12-03T01:01:23.589Z,29.40
2022-12-03T01:03:26.305Z,41.95
2022-12-03T01:05:28.962Z,37.28
2022-12-03T01:07:31.670Z,30.50
2022-12-03T01:09:34.366Z,27.02
2022-12-03T01:11:38.336Z,27.77
2022-12-03T01:13:40.960Z,31.95
2022-12-03T01:15:43.708Z,27.73
2022-12-03T01:17:46.305Z,25.55
2022-12-03T01:19:48.884Z,26.73
2022-12-03T01:21:52.662Z,27.08
2022-12-03T01:23:55.613Z,26.17
2022-12-03T01:25:58.224Z,28.02
2022-12-03T01:28:02.289Z,26.80
2022-12-03T01:30:06.231Z,25.48
2022-12-03T01:32:16.644Z,24.10
2022-12-03T01:34:19.265Z,27.52
2022-12-03T01:36:21.961Z,26.10
2022-12-03T01:38:24.571Z,25.63
2022-12-03T01:40:27.185Z,25.88
2022-12-03T01:42:32.601Z,25.08
2022-12-03T01:44:40.166Z,23.98
2022-12-03T01:46:43.577Z,25.48
2022-12-03T01:48:46.604Z,27.58
2022-12-03T01:50:49.407Z,19.85
2022-12-03T01:52:59.299Z,19.92
2022-12-03T01:55:05.225Z,22.20
2022-12-03T01:57:19.305Z,24.95
2022-12-03T01:59:23.956Z,26.30
2022-12-03T02:01:28.504Z,28.23
2022-12-03T02:03:31.222Z,29.50
2022-12-03T02:05:35.278Z,25.70
2022-12-03T02:07:37.934Z,30.13
2022-12-03T02:09:40.530Z,31.63
2022-12-03T02:11:46.015Z,32.08
2022-12-03T02:13:50.535Z,34.08
2022-12-03T02:15:53.191Z,33.90
2022-12-03T02:17:58.101Z,33.33
2022-12-03T02:20:02.461Z,32.50
2022-12-03T02:22:12.310Z,30.02
2022-12-03T02:24:23.704Z,30.05
2022-12-03T02:26:28.035Z,34.08
2022-12-03T02:28:30.699Z,32.63
2022-12-03T02:30:34.482Z,32.38
2022-12-03T02:32:38.195Z,32.22
2022-12-03T02:34:42.345Z,32.92
2022-12-03T02:36:44.938Z,31.15
2022-12-03T02:38:49.851Z,32.83
2022-12-03T02:40:56.696Z,30.05
2022-12-03T02:43:02.480Z,30.50
2022-12-03T02:45:10.346Z,27.70
2022-12-03T02:47:13.244Z,31.95
2022-12-03T02:49:15.916Z,27.13
2022-12-03T02:51:18.577Z,31.88
2022-12-03T02:53:25.434Z,32.53
2022-12-03T02:55:33.328Z,28.45
2022-12-03T02:57:39.988Z,31.02
2022-12-03T02:59:45.203Z,30.67
2022-12-03T03:01:48.413Z,28.92
2022-12-03T03:03:52.472Z,30.33
2022-12-03T03:05:56.650Z,32.70
2022-12-03T03:08:01.074Z,30.33
2022-12-03T03:10:05.964Z,28.60
2022-12-03T03:12:08.713Z,32.58
2022-12-03T03:14:11.418Z,31.55
2022-12-03T03:16:15.483Z,29.98
2022-12-03T03:18:18.945Z,30.63
2022-12-03T03:20:21.759Z,30.85
2022-12-03T03:22:32.927Z,30.35
2022-12-03T03:24:37.884Z,27.67
2022-12-03T03:26:40.627Z,31.00
2022-12-03T03:28:46.054Z,31.38
2022-12-03T03:30:48.773Z,29.75
2022-12-03T03:32:52.727Z,32.60
2022-12-03T03:34:56.067Z,33.40
2022-12-03T03:36:58.966Z,31.90
2022-12-03T03:39:01.725Z,31.35
2022-12-03T03:41:06.871Z,32.10
2022-12-03T03:43:09.651Z,30.73
2022-12-03T03:45:12.361Z,30.73
2022-12-03T03:47:15.765Z,32.40
2022-12-03T03:49:19.752Z,32.67
2022-12-03T03:51:23.084Z,32.05
2022-12-03T03:53:25.876Z,34.60
2022-12-03T03:55:28.967Z,32.88
2022-12-03T03:57:31.673Z,37.55
2022-12-03T03:59:34.720Z,34.50
2022-12-03T04:01:37.879Z,32.75
2022-12-03T04:03:40.733Z,32.90
2022-12-03T04:05:44.848Z,32.15
2022-12-03T04:07:47.766Z,30.95
2022-12-03T04:09:50.426Z,32.53
2022-12-03T04:12:10.766Z,31.40
2022-12-03T04:14:13.324Z,31.23
2022-12-03T04:16:16.052Z,31.20
2022-12-03T04:18:36.069Z,32.05
2022-12-03T04:20:39.175Z,32.13
2022-12-03T04:22:42.133Z,32.28
2022-12-03T04:24:44.796Z,31.52
2022-12-03T04:27:05.129Z,29.10
2022-12-03T04:29:07.058Z,32.90
2022-12-03T04:31:23.678Z,28.63
2022-12-03T04:33:55.395Z,36.72
2022-12-03T04:35:58.007Z,31.98
2022-12-03T04:38:02.546Z,30.88
2022-12-03T04:40:26.286Z,33.25
2022-12-03T04:42:28.883Z,34.97
2022-12-03T04:44:33.190Z,33.70
2022-12-03T04:46:35.860Z,32.53
2022-12-03T04:48:38.442Z,29.98
2022-12-03T04:50:41.088Z,35.22
2022-12-03T04:52:43.684Z,29.67
2022-12-03T04:54:47.828Z,32.58
2022-12-03T04:56:50.457Z,31.30
2022-12-03T04:58:53.047Z,30.13
2022-12-03T05:00:55.699Z,33.58
2022-12-03T05:02:58.395Z,30.25
2022-12-03T05:05:01.090Z,30.48
2022-12-03T05:07:03.895Z,31.25
2022-12-03T05:09:06.561Z,34.33
2022-12-03T05:11:10.513Z,32.90
2022-12-03T05:13:13.085Z,31.27
2022-12-03T05:15:15.691Z,35.03
2022-12-03T05:17:18.278Z,33.50
2022-12-03T05:19:20.851Z,31.92
2022-12-03T05:21:22.611Z,31.02
2022-12-03T05:25:27.683Z,38.83
2022-12-03T05:27:31.658Z,30.42
2022-12-03T05:29:34.411Z,37.85
2022-12-03T05:31:36.995Z,28.60
2022-12-03T05:33:44.123Z,29.45
2022-12-03T05:35:47.481Z,32.70
2022-12-03T05:37:50.066Z,35.08
2022-12-03T05:39:52.664Z,32.55
2022-12-03T05:42:13.034Z,34.72
2022-12-03T05:44:20.438Z,31.17
2022-12-03T05:46:23.541Z,31.30
2022-12-03T05:48:26.161Z,33.55
2022-12-03T05:50:30.584Z,29.55
2022-12-03T05:52:33.221Z,35.63
2022-12-03T05:54:35.860Z,36.13
2022-12-03T05:56:38.488Z,35.80
2022-12-03T05:58:41.086Z,35.50
2022-12-03T06:00:45.158Z,36.90
2022-12-03T06:02:48.174Z,30.38
2022-12-03T06:04:51.031Z,31.98
2022-12-03T06:06:53.816Z,32.28
2022-12-03T06:08:56.446Z,34.80
2022-12-03T06:10:59.053Z,31.17
2022-12-03T06:13:02.171Z,36.33
2022-12-03T06:15:05.551Z,33.17
2022-12-03T06:17:09.582Z,34.97
2022-12-03T06:19:12.167Z,34.22
2022-12-03T06:21:14.751Z,32.88
2022-12-03T06:23:17.330Z,34.08
2022-12-03T06:25:19.930Z,31.52
2022-12-03T06:27:23.082Z,32.60
2022-12-03T06:29:25.735Z,33.50
2022-12-03T06:31:28.440Z,34.53
2022-12-03T06:33:32.446Z,33.95
2022-12-03T06:35:35.023Z,35.00
2022-12-03T06:37:37.639Z,33.15
2022-12-03T06:39:40.221Z,37.03
2022-12-03T06:41:42.908Z,32.85
2022-12-03T06:43:45.493Z,39.92
2022-12-03T06:45:48.718Z,36.65
2022-12-03T06:47:51.336Z,37.08
2022-12-03T06:49:55.435Z,34.28
2022-12-03T06:51:58.056Z,33.40
2022-12-03T06:54:00.630Z,37.15
2022-12-03T06:56:03.210Z,33.45
2022-12-03T06:58:05.827Z,38.15
2022-12-03T07:00:09.888Z,37.28
2022-12-03T07:02:13.218Z,38.83
2022-12-03T07:04:18.835Z,33.53
2022-12-03T07:06:22.790Z,40.67
2022-12-03T07:08:25.446Z,35.78
2022-12-03T07:10:28.219Z,38.42
2022-12-03T07:12:31.625Z,41.25
2022-12-03T07:14:34.260Z,41.53
2022-12-03T07:16:37.281Z,36.75
2022-12-03T07:18:39.974Z,36.20
2022-12-03T07:20:42.566Z,37.67
2022-12-03T07:22:46.513Z,42.80
2022-12-03T07:24:49.149Z,40.00
2022-12-03T07:26:51.719Z,38.40
2022-12-03T07:28:54.345Z,39.30
2022-12-03T07:30:56.992Z,37.35
2022-12-03T07:32:59.622Z,34.47
2022-12-03T07:35:02.867Z,35.22
2022-12-03T07:37:05.538Z,37.70
2022-12-03T07:39:09.533Z,35.03
2022-12-03T07:41:12.209Z,32.83
2022-12-03T07:43:14.816Z,41.03
2022-12-03T07:45:17.483Z,42.40
2022-12-03T07:47:20.215Z,35.78
2022-12-03T07:49:22.814Z,34.92
2022-12-03T07:51:30.631Z,39.70
2022-12-03T07:53:36.099Z,38.63
2022-12-03T07:55:40.068Z,37.60
2022-12-03T07:57:42.637Z,38.28
2022-12-03T07:59:45.218Z,36.90
2022-12-03T08:01:47.848Z,35.63
2022-12-03T08:03:50.507Z,34.58
2022-12-03T08:05:55.283Z,36.28
2022-12-03T08:07:58.019Z,36.92
2022-12-03T08:10:00.684Z,36.13
2022-12-03T08:12:13.978Z,36.78
2022-12-03T08:14:18.028Z,37.55
2022-12-03T08:16:23.447Z,37.67
2022-12-03T08:18:26.228Z,36.08
2022-12-03T08:20:33.722Z,40.97
2022-12-03T08:22:36.297Z,38.15
2022-12-03T08:24:39.064Z,41.08
2022-12-03T08:26:43.875Z,35.42
2022-12-03T08:28:48.247Z,39.70
2022-12-03T08:31:01.176Z,39.17
2022-12-03T08:33:14.616Z,36.55
2022-12-03T08:35:23.643Z,38.47
2022-12-03T08:37:26.340Z,41.97
2022-12-03T08:39:33.545Z,42.88
2022-12-03T08:41:54.739Z,36.92
2022-12-03T08:43:58.701Z,40.03
2022-12-03T08:46:01.640Z,39.30
2022-12-03T08:48:11.186Z,40.90
2022-12-03T08:50:28.280Z,41.13
2022-12-03T08:52:33.257Z,39.63
2022-12-03T08:54:35.906Z,36.22
2022-12-03T08:56:38.660Z,36.05
2022-12-03T08:58:43.399Z,38.33
2022-12-03T09:00:47.374Z,35.35
2022-12-03T09:02:53.181Z,41.25
2022-12-03T09:04:56.134Z,33.65
2022-12-03T09:06:59.135Z,33.83
2022-12-03T09:09:06.544Z,31.60
2022-12-03T09:11:09.490Z,36.35
2022-12-03T09:13:12.332Z,32.95
2022-12-03T09:15:14.958Z,32.67
2022-12-03T09:17:18.925Z,33.80
2022-12-03T09:19:21.528Z,29.02
2022-12-03T09:21:24.118Z,30.33
2022-12-03T09:23:26.731Z,29.27
2022-12-03T09:25:29.351Z,28.35
2022-12-03T09:27:31.935Z,28.23
2022-12-03T09:29:34.591Z,26.10
2022-12-03T09:31:37.322Z,28.88
2022-12-03T09:33:41.303Z,26.17
2022-12-03T09:35:43.892Z,28.35
2022-12-03T09:37:46.597Z,26.27
2022-12-03T09:39:49.207Z,25.63
2022-12-03T09:41:51.885Z,25.25
2022-12-03T09:44:17.142Z,25.77
2022-12-03T09:46:18.102Z,28.45
2022-12-03T09:48:21.965Z,26.33
2022-12-03T09:50:28.007Z,26.13
2022-12-03T09:52:34.850Z,27.85
2022-12-03T09:54:41.557Z,24.63
2022-12-03T09:56:46.850Z,27.50
2022-12-03T09:58:50.611Z,27.23
2022-12-03T10:00:53.366Z,28.08
2022-12-03T10:02:59.065Z,25.88
2022-12-03T10:05:01.755Z,24.80
2022-12-03T10:07:05.719Z,26.73
2022-12-03T10:09:11.077Z,24.17
2022-12-03T10:11:13.750Z,25.02
2022-12-03T10:13:25.476Z,24.15
2022-12-03T10:15:28.752Z,24.20
2022-12-03T10:17:32.913Z,26.35
2022-12-03T10:19:37.584Z,24.60
2022-12-03T10:21:40.346Z,22.88
2022-12-03T10:23:48.221Z,25.30
2022-12-03T10:25:55.617Z,23.63
2022-12-03T10:28:00.838Z,20.92
2022-12-03T10:30:06.379Z,25.42
2022-12-03T10:32:13.195Z,26.02
2022-12-03T10:34:25.075Z,26.13
2022-12-03T10:38:30.141Z,26.48
2022-12-03T10:40:36.499Z,28.52
2022-12-03T10:42:41.558Z,24.05
2022-12-03T10:44:44.335Z,28.48
2022-12-03T10:47:05.245Z,28.95
2022-12-03T10:49:16.177Z,29.30
2022-12-03T10:51:21.079Z,27.15
2022-12-03T10:53:27.952Z,28.25
2022-12-03T10:55:38.473Z,27.13
2022-12-03T10:57:45.674Z,28.88
2022-12-03T10:59:48.675Z,32.08
2022-12-03T11:01:51.904Z,27.67
2022-12-03T11:03:57.683Z,24.10
2022-12-03T11:06:02.256Z,30.05
2022-12-03T11:08:05.332Z,28.40
2022-12-03T11:10:14.860Z,35.47
2022-12-03T11:12:22.226Z,25.02
2022-12-03T11:15:06.547Z,27.95
2022-12-03T11:17:12.121Z,25.25
2022-12-03T11:19:19.103Z,32.13
2022-12-03T11:21:21.776Z,28.75
2022-12-03T11:23:57.748Z,25.35
2022-12-03T11:26:00.397Z,23.35
2022-12-03T11:28:34.145Z,24.33
2022-12-03T11:31:09.220Z,26.35
2022-12-03T11:33:22.928Z,22.80
2022-12-03T11:35:36.734Z,22.95
2022-12-03T11:37:39.675Z,24.00
2022-12-03T11:40:02.778Z,25.75
2022-12-03T11:42:29.850Z,24.08
2022-12-03T11:44:33.853Z,24.58
2022-12-03T11:46:43.548Z,26.50
2022-12-03T11:48:47.513Z,22.30
2022-12-03T11:50:52.677Z,21.77
2022-12-03T11:52:57.358Z,25.10
2022-12-03T11:55:06.017Z,22.63
2022-12-03T11:57:27.423Z,23.55
2022-12-03T11:59:30.182Z,21.48
2022-12-03T12:01:38.852Z,22.17
2022-12-03T12:03:45.121Z,23.08
2022-12-03T12:05:47.852Z,21.65
2022-12-03T12:07:50.966Z,18.80
2022-12-03T12:09:55.541Z,20.05
2022-12-03T12:12:19.436Z,22.17
2022-12-03T12:14:27.835Z,25.15
2022-12-03T12:16:41.035Z,18.27
2022-12-03T12:18:51.135Z,19.05
2022-12-03T12:21:33.565Z,23.02
2022-12-03T12:23:36.234Z,23.35
2022-12-03T12:25:41.329Z,22.08
2022-12-03T12:27:45.480Z,20.35
2022-12-03T12:29:55.879Z,21.42
2022-12-03T12:32:03.298Z,17.98
2022-12-03T12:34:12.341Z,20.25
2022-12-03T12:36:15.048Z,19.35
2022-12-03T12:38:19.559Z,19.80
2022-12-03T12:40:24.909Z,21.20
2022-12-03T12:42:33.950Z,21.70
2022-12-03T12:44:36.568Z,20.58
2022-12-03T12:46:47.760Z,19.05
2022-12-03T12:48:56.487Z,23.50
2022-12-03T12:51:10.087Z,19.97
2022-12-03T12:53:17.959Z,21.02
2022-12-03T12:55:21.532Z,21.23
2022-12-03T12:57:24.686Z,21.55
2022-12-03T12:59:27.308Z,22.35
2022-12-03T13:01:32.527Z,20.55
2022-12-03T13:03:37.946Z,22.50
2022-12-03T13:05:45.515Z,23.65
2022-12-03T13:07:48.871Z,20.55
2022-12-03T13:09:55.609Z,23.35
2022-12-03T13:12:00.586Z,19.92
2022-12-03T13:14:11.431Z,22.15
2022-12-03T13:16:20.425Z,21.95
2022-12-03T13:18:32.342Z,22.13
2022-12-03T13:22:38.714Z,21.27
2022-12-03T13:24:44.804Z,22.40
2022-12-03T13:26:47.403Z,23.88
2022-12-03T13:28:50.467Z,22.58
2022-12-03T13:30:53.098Z,24.33
2022-12-03T13:32:56.046Z,20.83
2022-12-03T13:35:06.898Z,23.02
2022-12-03T13:37:15.018Z,24.02
2022-12-03T13:39:22.382Z,22.85
2022-12-03T13:41:50.874Z,23.85
2022-12-03T13:43:53.897Z,20.85
2022-12-03T13:45:56.668Z,25.73
2022-12-03T13:48:01.007Z,24.55
2022-12-03T13:50:20.085Z,18.92
2022-12-03T13:52:26.168Z,27.23
2022-12-03T13:54:31.495Z,22.48
2022-12-03T13:56:36.309Z,22.88
2022-12-03T13:58:38.930Z,23.27
2022-12-03T14:00:41.608Z,25.70
2022-12-03T14:02:44.717Z,23.58
2022-12-03T14:04:47.369Z,23.00
2022-12-03T14:06:50.129Z,21.30
2022-12-03T14:09:07.820Z,27.20
2022-12-03T14:11:33.207Z,27.17
2022-12-03T14:13:35.912Z,25.60
2022-12-03T14:15:38.524Z,24.48
2022-12-03T14:17:41.441Z,19.92
2022-12-03T14:19:44.065Z,22.05
2022-12-03T14:21:46.689Z,18.60
2022-12-03T14:23:49.280Z,20.02
2022-12-03T14:25:51.879Z,19.30
2022-12-03T14:27:55.881Z,21.48
2022-12-03T14:29:58.454Z,20.92
2022-12-03T14:32:01.200Z,17.77
2022-12-03T14:34:03.902Z,20.38
2022-12-03T14:36:06.881Z,20.85
2022-12-03T14:38:09.487Z,20.08
2022-12-03T14:40:17.972Z,19.48
2022-12-03T14:42:23.654Z,21.13
2022-12-03T14:44:27.669Z,21.30
2022-12-03T14:46:30.236Z,21.08
2022-12-03T14:48:32.807Z,20.42
2022-12-03T14:50:35.440Z,20.75
2022-12-03T14:52:38.466Z,20.13
2022-12-03T14:54:42.288Z,17.73
2022-12-03T14:56:45.335Z,21.65
2022-12-03T14:58:47.907Z,18.75
2022-12-03T15:00:51.901Z,18.90
2022-12-03T15:02:54.574Z,21.30
2022-12-03T15:04:57.216Z,18.77
2022-12-03T15:06:59.874Z,22.67
2022-12-03T15:09:02.459Z,19.70
2022-12-03T15:11:05.105Z,19.40
2022-12-03T15:13:07.685Z,21.40
2022-12-03T15:15:11.382Z,19.15
2022-12-03T15:17:15.372Z,21.55
2022-12-03T15:19:18.070Z,19.52
2022-12-03T15:21:20.722Z,19.80
2022-12-03T15:23:23.315Z,17.52
2022-12-03T15:25:26.082Z,20.85
2022-12-03T15:27:28.691Z,17.70
2022-12-03T15:29:32.751Z,17.85
2022-12-03T15:31:35.428Z,19.50
2022-12-03T15:33:39.433Z,18.15
2022-12-03T15:35:42.807Z,21.65
2022-12-03T15:37:45.555Z,17.70
2022-12-03T15:39:48.985Z,18.13
2022-12-03T15:41:51.747Z,17.38
2022-12-03T15:43:54.396Z,19.45
2022-12-03T15:45:57.121Z,16.98
2022-12-03T15:47:59.852Z,17.50
2022-12-03T15:50:03.867Z,18.80
2022-12-03T15:52:07.772Z,19.70
2022-12-03T15:54:12.145Z,18.25
2022-12-03T15:56:15.106Z,17.38
2022-12-03T15:58:17.668Z,19.83
2022-12-03T16:00:21.382Z,21.58
2022-12-03T16:02:24.038Z,18.55
2022-12-03T16:04:26.663Z,18.13
2022-12-03T16:06:30.574Z,17.40
2022-12-03T16:08:33.250Z,19.38
2022-12-03T16:10:35.881Z,17.52
2022-12-03T16:12:38.511Z,15.98
2022-12-03T16:14:41.112Z,20.17
2022-12-03T16:16:43.710Z,16.63
2022-12-03T16:18:47.005Z,19.48
2022-12-03T16:20:49.797Z,21.52
2022-12-03T16:22:54.018Z,19.38
2022-12-03T16:24:56.604Z,17.30
2022-12-03T16:26:59.269Z,18.60
2022-12-03T16:29:01.955Z,22.15
2022-12-03T16:31:04.773Z,19.38
2022-12-03T16:33:07.395Z,22.63
2022-12-03T16:35:10.333Z,17.20
2022-12-03T16:37:12.983Z,25.60
2022-12-03T16:39:17.286Z,18.92
2022-12-03T16:41:19.895Z,18.55
2022-12-03T16:43:22.466Z,19.58
2022-12-03T16:45:51.226Z,24.02
2022-12-03T16:47:53.849Z,21.38
2022-12-03T16:49:56.555Z,21.67
2022-12-03T16:51:59.221Z,22.83
2022-12-03T16:54:01.831Z,18.10
2022-12-03T16:56:06.195Z,21.92
2022-12-03T16:58:08.772Z,19.77
2022-12-03T17:00:12.365Z,20.75
2022-12-03T17:02:15.228Z,19.13
2022-12-03T17:04:17.991Z,20.58
2022-12-03T17:06:20.614Z,18.95
2022-12-03T17:08:23.337Z,21.00
2022-12-03T17:10:26.087Z,22.70
2022-12-03T17:12:47.923Z,20.45
2022-12-03T17:14:52.769Z,20.75
2022-12-03T17:16:55.411Z,18.42
2022-12-03T17:18:57.994Z,17.98
2022-12-03T17:21:00.579Z,19.08
2022-12-03T17:23:03.523Z,19.95
2022-12-03T17:25:06.616Z,21.60
2022-12-03T17:27:09.234Z,20.15
2022-12-03T17:29:14.198Z,18.27
2022-12-03T17:31:16.928Z,21.60
2022-12-03T17:33:19.617Z,20.02
2022-12-03T17:35:22.318Z,23.40
2022-12-03T17:37:25.124Z,26.02
2022-12-03T17:39:27.708Z,21.83
2022-12-03T17:41:30.336Z,21.45
2022-12-03T17:43:32.926Z,22.40
2022-12-03T17:45:36.888Z,21.17
2022-12-03T17:47:39.514Z,23.45
2022-12-03T17:49:42.176Z,22.65
2022-12-03T17:51:44.792Z,26.02
2022-12-03T17:53:47.412Z,23.65
2022-12-03T17:55:53.119Z,27.98
2022-12-03T17:57:55.756Z,27.83
2022-12-03T17:59:58.383Z,29.42
2022-12-03T18:02:02.446Z,30.70
2022-12-03T18:04:05.205Z,25.02
2022-12-03T18:06:11.059Z,26.10
2022-12-03T18:08:13.670Z,23.10
2022-12-03T18:10:16.449Z,24.60
2022-12-03T18:12:19.039Z,20.48
2022-12-03T18:14:21.612Z,22.58
2022-12-03T18:16:24.298Z,23.77
2022-12-03T18:18:28.287Z,24.00
2022-12-03T18:20:30.940Z,28.23
2022-12-03T18:22:33.726Z,23.73
2022-12-03T18:24:36.375Z,24.33
2022-12-03T18:26:42.690Z,31.23
2022-12-03T18:28:45.295Z,24.75
2022-12-03T18:30:52.540Z,25.63
2022-12-03T18:32:55.663Z,23.33
2022-12-03T18:34:59.668Z,25.95
2022-12-03T18:37:02.341Z,24.65
2022-12-03T18:39:09.046Z,25.27
2022-12-03T18:41:11.685Z,26.85
2022-12-03T18:43:16.840Z,27.67
2022-12-03T18:45:20.016Z,25.80
2022-12-03T18:47:24.511Z,25.67
2022-12-03T18:49:27.152Z,28.58
2022-12-03T18:51:31.100Z,29.27
2022-12-03T18:53:36.296Z,25.83
2022-12-03T18:55:39.192Z,30.88
2022-12-03T18:57:41.784Z,31.13
2022-12-03T18:59:44.367Z,28.42
2022-12-03T19:01:46.959Z,28.02
2022-12-03T19:03:50.050Z,31.20
2022-12-03T19:05:52.730Z,31.88
2022-12-03T19:07:56.782Z,31.52
2022-12-03T19:09:59.414Z,25.25
2022-12-03T19:12:01.977Z,33.40
2022-12-03T19:14:04.553Z,27.60
2022-12-03T19:16:08.687Z,32.60
2022-12-03T19:18:11.322Z,30.50
2022-12-03T19:20:14.357Z,33.22
2022-12-03T19:22:17.064Z,28.85
2022-12-03T19:24:25.271Z,36.10
2022-12-03T19:26:28.482Z,33.80
2022-12-03T19:28:31.584Z,33.92
2022-12-03T19:30:34.252Z,29.27
2022-12-03T19:32:37.127Z,33.05
2022-12-03T19:34:39.876Z,29.13
2022-12-03T19:36:42.531Z,35.05
2022-12-03T19:38:52.130Z,33.65
2022-12-03T19:41:03.960Z,33.00
2022-12-03T19:43:06.546Z,35.63
2022-12-03T19:45:10.554Z,34.90
2022-12-03T19:47:13.154Z,36.95
2022-12-03T19:49:16.655Z,35.78
2022-12-03T19:51:34.251Z,37.28
2022-12-03T19:53:38.258Z,38.10
2022-12-03T19:55:40.914Z,35.22
2022-12-03T19:57:44.860Z,35.75
2022-12-03T19:59:47.523Z,38.72
2022-12-03T20:01:50.220Z,36.40
2022-12-03T20:03:54.781Z,37.22
2022-12-03T20:06:01.138Z,34.53
2022-12-03T20:08:04.701Z,38.95
2022-12-03T20:10:08.501Z,37.53
2022-12-03T20:12:11.112Z,38.38
2022-12-03T20:14:16.408Z,36.50
2022-12-03T20:16:19.142Z,38.05
2022-12-03T20:18:21.805Z,34.60
2022-12-03T20:20:24.780Z,37.63
2022-12-03T20:22:27.419Z,37.50
2022-12-03T20:24:30.011Z,36.20
2022-12-03T20:26:33.117Z,36.38
2022-12-03T20:28:35.808Z,36.15
2022-12-03T20:30:39.785Z,34.00
2022-12-03T20:32:45.454Z,39.35
2022-12-03T20:34:49.601Z,32.85
2022-12-03T20:36:52.285Z,34.53
2022-12-03T20:38:55.833Z,32.97
2022-12-03T20:41:02.018Z,38.08
2022-12-03T20:43:04.606Z,34.03
2022-12-03T20:45:08.454Z,34.65
2022-12-03T20:47:12.435Z,40.42
2022-12-03T20:49:15.023Z,33.00
2022-12-03T20:51:19.857Z,36.58
2022-12-03T20:53:25.254Z,33.42
2022-12-03T20:55:28.330Z,30.15
2022-12-03T20:57:30.919Z,33.53
2022-12-03T20:59:33.697Z,33.20
2022-12-03T21:01:38.391Z,31.25
2022-12-03T21:03:42.479Z,35.45
2022-12-03T21:05:45.290Z,33.63
2022-12-03T21:07:48.109Z,29.90
2022-12-03T21:09:50.816Z,34.70
2022-12-03T21:11:53.684Z,28.38
2022-12-03T21:13:56.853Z,34.28
2022-12-03T21:16:05.473Z,28.55
2022-12-03T21:18:08.819Z,35.50
2022-12-03T21:20:16.673Z,34.60
2022-12-03T21:22:23.437Z,30.17
2022-12-03T21:24:26.115Z,28.33
2022-12-03T21:26:28.774Z,37.15
2022-12-03T21:28:31.903Z,29.35
2022-12-03T21:30:37.604Z,30.58
2022-12-03T21:32:40.311Z,30.20
2022-12-03T21:34:42.913Z,31.05
2022-12-03T21:36:47.177Z,30.10
2022-12-03T21:38:49.938Z,29.50
2022-12-03T21:40:52.515Z,30.35
2022-12-03T21:42:55.234Z,30.13
2022-12-03T21:44:57.932Z,31.05
2022-12-03T21:47:09.359Z,32.22
2022-12-03T21:49:19.296Z,31.08
2022-12-03T21:51:21.982Z,32.33
2022-12-03T21:53:26.088Z,31.85
2022-12-03T21:55:31.963Z,33.28
2022-12-03T21:57:36.610Z,32.00
2022-12-03T21:59:39.213Z,32.03
2022-12-03T22:01:46.961Z,28.60
2022-12-03T22:03:50.629Z,27.55
2022-12-03T22:05:53.283Z,28.02
2022-12-03T22:07:55.921Z,32.15
2022-12-03T22:09:59.947Z,33.78
2022-12-03T22:12:02.610Z,31.30
2022-12-03T22:14:06.919Z,32.72
2022-12-03T22:16:12.091Z,30.13
2022-12-03T22:18:14.788Z,27.67
2022-12-03T22:20:17.536Z,32.13
2022-12-03T22:22:21.018Z,31.10
2022-12-03T22:24:24.037Z,30.67
2022-12-03T22:26:28.018Z,34.60
2022-12-03T22:28:30.661Z,33.28
2022-12-03T22:30:33.340Z,35.63
2022-12-03T22:32:36.323Z,31.40
2022-12-03T22:34:40.879Z,30.73
2022-12-03T22:36:43.525Z,32.03
2022-12-03T22:38:46.593Z,32.08
2022-12-03T22:40:49.178Z,32.28
2022-12-03T22:42:53.215Z,32.10
2022-12-03T22:44:55.845Z,31.88
2022-12-03T22:46:58.468Z,32.63
2022-12-03T22:49:06.705Z,36.15
2022-12-03T22:51:14.055Z,31.15
2022-12-03T22:53:16.983Z,31.35
2022-12-03T22:55:19.539Z,30.42
2022-12-03T22:57:22.256Z,33.60
2022-12-03T22:59:26.320Z,32.90
2022-12-03T23:01:31.386Z,32.08
2022-12-03T23:03:34.049Z,34.50
2022-12-03T23:05:39.573Z,30.08
2022-12-03T23:07:42.176Z,30.42
2022-12-03T23:09:44.906Z,31.30
2022-12-03T23:11:48.097Z,31.83
2022-12-03T23:13:50.862Z,37.10
2022-12-03T23:15:54.855Z,33.03
2022-12-03T23:17:58.378Z,31.30
2022-12-03T23:20:00.970Z,35.05
2022-12-03T23:22:03.657Z,32.40
2022-12-03T23:24:07.749Z,34.72
2022-12-03T23:26:13.127Z,31.17
2022-12-03T23:28:15.740Z,34.90
2022-12-03T23:30:18.482Z,34.67
2022-12-03T23:32:22.432Z,35.17
2022-12-03T23:34:25.068Z,35.03
2022-12-03T23:36:30.997Z,35.00
2022-12-03T23:38:33.660Z,36.88
2022-12-03T23:40:36.259Z,33.65
2022-12-03T23:42:38.983Z,37.35
2022-12-03T23:44:41.524Z,35.28
2022-12-03T23:46:44.140Z,37.58
2022-12-03T23:48:48.394Z,38.53
2022-12-03T23:50:50.957Z,37.28
2022-12-03T23:52:53.696Z,38.45
2022-12-03T23:54:56.303Z,39.20
2022-12-03T23:56:59.240Z,41.47
2022-12-03T23:59:01.896Z,39.30
